Weather at Leongatha Airport

Public forecast

Using degrees Celsius for public forecast. Weather courtesy of forecast.io.

Closest aviation weather report (METAR) to Leongatha Airport

Closest report is Melbourne International Airport, 68.8 nm (127.4 km) NW.

2024/07/20 05:30 (retrieved 32 minutes ago)

YMML 200530Z 26021KT 9999 FEW013 SCT018 BKN041 11/09 Q1003 RF002/0016

Closest aviation forecast (TAF) to Leongatha Airport

Closest forecast is Melbourne International Airport, 68.8 nm (127.4 km) NW.

2024/07/20 06:51 (retrieved 0 seconds ago)

TAF YMML 200526Z 2006/2112 26018G32KT 9999 -RA BKN025 BECMG 2009/2010 25014KT 9999 NSW SCT030 FM201500 32010KT 9999 SCT040 FM210300 33014KT 9999 FEW040 INTER 2006/2009 24020G38KT 5000 RA BKN015